Time;durP1;ratioP1;P1;durP2;ratioP2;P2;SDS_P1;SDS_P2;PMS_P1;PMS_P2;Temp;Humidity;BMP_temperature;BMP_pressure;BME280_temperature;BME280_humidity;BME280_pressure;Samples;Min_cycle;Max_cycle;Signal;HPM_P1;HPM_P2
2023/12/12 00:01:57;;;;;;;;;25.25;20.25;;;;;-143.90;100.00;75039.91;4925994;28;103548;-76
2023/12/12 00:04:24;;;;;;;;;20.50;17.00;;;;;-143.90;100.00;75044.03;4926033;28;101881;-77
2023/12/12 00:06:51;;;;;;;;;20.25;17.75;;;;;-143.90;100.00;75046.09;4930031;28;101510;-77
2023/12/12 00:09:17;;;;;;;;;20.00;17.25;;;;;-143.90;100.00;75048.19;4931862;28;101998;-77
2023/12/12 00:11:45;;;;;;;;;24.25;21.25;;;;;-143.90;100.00;75064.72;4929655;28;108196;-76
2023/12/12 00:14:11;;;;;;;;;18.50;17.00;;;;;-143.90;100.00;75060.59;4929681;28;101775;-77
2023/12/12 00:16:38;;;;;;;;;22.00;17.75;;;;;-143.90;100.00;75066.78;4928009;28;101635;-76
2023/12/12 00:19:04;;;;;;;;;16.50;15.75;;;;;-143.90;100.00;75064.72;4931355;28;101817;-77
2023/12/12 00:21:31;;;;;;;;;23.75;20.75;;;;;-143.90;100.00;75077.13;4930679;28;103495;-77
2023/12/12 00:23:58;;;;;;;;;17.00;15.25;;;;;-143.90;100.00;75072.97;4929456;28;102042;-77
2023/12/12 00:26:24;;;;;;;;;28.25;20.25;;;;;-143.90;100.00;75085.38;4923560;28;105920;-77
2023/12/12 00:28:51;;;;;;;;;22.25;19.50;;;;;-143.90;100.00;75087.47;4931311;28;101740;-76
2023/12/12 00:31:18;;;;;;;;;20.00;17.00;;;;;-143.90;100.00;75085.38;4931643;28;103513;-77
2023/12/12 00:33:44;;;;;;;;;20.50;17.50;;;;;-143.90;100.00;75093.66;4928333;28;102000;-77
2023/12/12 00:36:11;;;;;;;;;20.25;14.75;;;;;-143.90;100.00;75083.31;4929392;28;101832;-77
2023/12/12 00:38:37;;;;;;;;;23.75;21.75;;;;;-143.90;100.00;75089.53;4930098;28;101888;-77
2023/12/12 00:41:04;;;;;;;;;19.25;17.00;;;;;-143.90;100.00;75081.25;4928502;28;103548;-77
2023/12/12 00:43:31;;;;;;;;;16.25;16.00;;;;;-143.90;100.00;75085.38;4926815;28;102021;-77
2023/12/12 00:45:57;;;;;;;;;20.50;20.00;;;;;-143.90;100.00;75097.78;4931773;28;101804;-77
2023/12/12 00:48:24;;;;;;;;;22.00;18.50;;;;;-143.90;100.00;75099.88;4929548;28;102624;-77
2023/12/12 00:50:51;;;;;;;;;15.75;14.75;;;;;-143.90;100.00;75101.94;4929017;28;103523;-76
2023/12/12 00:53:17;;;;;;;;;20.50;17.00;;;;;-143.90;100.00;75116.41;4934224;28;101881;-77
2023/12/12 00:55:44;;;;;;;;;25.25;18.75;;;;;-143.90;100.00;75118.47;4931056;28;101659;-76
2023/12/12 00:58:11;;;;;;;;;18.75;15.75;;;;;-143.90;100.00;75118.47;4931405;28;101671;-78
2023/12/12 01:00:37;;;;;;;;;22.00;17.00;;;;;-143.90;100.00;75118.47;4930893;28;103384;-77
2023/12/12 01:03:04;;;;;;;;;20.75;19.75;;;;;-143.90;100.00;75126.75;4929835;28;102039;-77
2023/12/12 01:05:31;;;;;;;;;18.00;17.00;;;;;-143.90;100.00;75128.81;4922902;28;101774;-77
2023/12/12 01:07:57;;;;;;;;;21.00;16.50;;;;;-143.90;100.00;75126.75;4931288;28;101705;-78
2023/12/12 01:10:24;;;;;;;;;15.50;12.25;;;;;-143.90;100.00;75118.47;4930122;28;104674;-78
2023/12/12 01:12:51;;;;;;;;;16.50;14.00;;;;;-143.90;100.00;75110.19;4930148;28;101681;-75
2023/12/12 01:15:18;;;;;;;;;23.75;18.00;;;;;-143.90;100.00;75118.47;4932694;28;101951;-77
2023/12/12 01:17:44;;;;;;;;;21.50;18.75;;;;;-143.90;100.00;75114.34;4931190;28;101932;-78
2023/12/12 01:20:11;;;;;;;;;12.50;10.25;;;;;-143.90;100.00;75114.34;4930120;28;103390;-78
2023/12/12 01:22:38;;;;;;;;;11.50;11.25;;;;;-143.90;100.00;75122.59;4928733;28;101676;-77
2023/12/12 01:25:07;;;;;;;;;15.75;12.00;;;;;-143.90;100.00;75122.59;4927895;28;106078;-78
2023/12/12 01:27:33;;;;;;;;;12.00;11.50;;;;;-143.90;100.00;75135.00;4930992;28;102117;-78
2023/12/12 01:30:00;;;;;;;;;14.50;11.50;;;;;-143.90;100.00;75132.94;4929611;28;103561;-76
2023/12/12 01:32:27;;;;;;;;;13.25;10.00;;;;;-143.90;100.00;75126.75;4927927;28;101651;-78
2023/12/12 01:34:53;;;;;;;;;16.25;10.75;;;;;-143.90;100.00;75135.00;4929543;28;102040;-77
2023/12/12 01:37:20;;;;;;;;;13.50;12.00;;;;;-143.90;100.00;75137.06;4929214;28;101995;-76
2023/12/12 01:39:47;;;;;;;;;15.50;15.50;;;;;-143.90;100.00;75151.53;4931589;28;107857;-77
2023/12/12 01:42:13;;;;;;;;;10.25;7.75;;;;;-143.90;100.00;75147.41;4928614;28;102071;-76
2023/12/12 01:44:40;;;;;;;;;14.50;12.50;;;;;-143.90;100.00;75157.75;4926245;28;101897;-77
2023/12/12 01:47:07;;;;;;;;;17.00;15.25;;;;;-143.90;100.00;75155.69;4945786;28;102965;-76
2023/12/12 01:49:34;;;;;;;;;20.00;16.75;;;;;-143.90;100.00;75157.75;4928340;28;103404;-77
2023/12/12 01:52:01;;;;;;;;;17.00;16.00;;;;;-143.90;100.00;75163.94;4925864;28;101760;-77
2023/12/12 01:54:29;;;;;;;;;17.00;15.25;;;;;-143.90;100.00;75172.22;4927246;28;101764;-77
2023/12/12 01:56:57;;;;;;;;;20.00;17.00;;;;;-143.90;100.00;75170.16;4929192;28;101986;-75
2023/12/12 01:59:24;;;;;;;;;10.75;10.75;;;;;-143.90;100.00;75163.94;4927702;28;103401;-77
2023/12/12 02:01:51;;;;;;;;;19.25;14.25;;;;;-143.90;100.00;75172.22;4927210;28;101766;-78
2023/12/12 02:04:19;;;;;;;;;16.75;16.00;;;;;-143.90;100.00;75182.56;4928109;28;101737;-77
2023/12/12 02:06:48;;;;;;;;;16.00;12.00;;;;;-143.90;100.00;75172.22;4930201;28;101821;-77
2023/12/12 02:09:15;;;;;;;;;14.50;10.75;;;;;-143.90;100.00;75163.94;4926721;28;103368;-77
2023/12/12 02:11:42;;;;;;;;;12.00;11.25;;;;;-143.90;100.00;75168.09;4928749;28;101923;-77
2023/12/12 02:14:10;;;;;;;;;9.00;7.75;;;;;-143.90;100.00;75161.88;4926984;28;101856;-77
2023/12/12 02:16:37;;;;;;;;;12.00;11.50;;;;;-143.90;100.00;75168.09;4930886;28;102076;-77
2023/12/12 02:19:03;;;;;;;;;13.00;11.00;;;;;-143.90;100.00;75163.94;4925824;28;103336;-77
2023/12/12 02:21:30;;;;;;;;;11.75;11.00;;;;;-143.90;100.00;75172.22;4939770;28;102846;-77
2023/12/12 02:23:57;;;;;;;;;14.00;12.25;;;;;-143.90;100.00;75176.34;4928852;28;101718;-77
2023/12/12 02:26:24;;;;;;;;;14.50;12.50;;;;;-143.90;100.00;75172.22;4928185;28;101938;-76
2023/12/12 02:28:50;;;;;;;;;15.40;11.00;;;;;-143.90;100.00;75180.50;4752734;28;5002142;-76
2023/12/12 02:31:17;;;;;;;;;12.00;11.25;;;;;-143.90;100.00;75172.22;4930642;28;101657;-77
2023/12/12 02:33:44;;;;;;;;;13.75;12.25;;;;;-143.90;100.00;75180.50;4928132;28;102305;-77
2023/12/12 02:36:11;;;;;;;;;18.00;17.50;;;;;-143.90;100.00;75190.81;4929385;28;101985;-77
2023/12/12 02:38:37;;;;;;;;;17.75;13.50;;;;;-143.90;100.00;75184.63;4928793;28;103487;-77
2023/12/12 02:41:04;;;;;;;;;12.75;12.00;;;;;-143.90;100.00;75176.34;4926558;28;101969;-77
2023/12/12 02:43:30;;;;;;;;;15.50;11.75;;;;;-143.90;100.00;75178.41;4927678;28;101933;-77
2023/12/12 02:45:57;;;;;;;;;14.75;13.50;;;;;-143.90;100.00;75178.41;4929752;28;101996;-76
2023/12/12 02:48:25;;;;;;;;;13.00;11.50;;;;;-143.90;100.00;75176.34;4927430;28;103362;-76
2023/12/12 02:50:52;;;;;;;;;19.75;16.50;;;;;-143.90;100.00;75176.34;4930590;28;102785;-76
2023/12/12 02:53:19;;;;;;;;;10.75;9.75;;;;;-143.90;100.00;75180.50;4932584;28;101870;-76
2023/12/12 02:55:45;;;;;;;;;22.00;12.50;;;;;-143.90;100.00;75184.63;4916684;28;103580;-77
2023/12/12 02:58:12;;;;;;;;;10.50;9.50;;;;;-143.90;100.00;75184.63;4934862;28;103514;-77
2023/12/12 03:00:38;;;;;;;;;12.00;11.00;;;;;-143.90;100.00;75176.34;4929459;28;101664;-77
2023/12/12 03:03:05;;;;;;;;;15.25;12.25;;;;;-143.90;100.00;75182.56;4926391;28;107134;-77
2023/12/12 03:05:31;;;;;;;;;16.00;13.00;;;;;-143.90;100.00;75184.63;4927917;28;101851;-77
2023/12/12 03:07:58;;;;;;;;;15.25;11.75;;;;;-143.90;100.00;75178.41;4926484;28;103690;-77
2023/12/12 03:10:25;;;;;;;;;13.00;11.50;;;;;-143.90;100.00;75184.63;4927296;28;101651;-77
2023/12/12 03:12:51;;;;;;;;;15.75;11.75;;;;;-143.90;100.00;75184.63;4929647;28;101627;-75
2023/12/12 03:15:18;;;;;;;;;13.00;12.00;;;;;-143.90;100.00;75184.63;4933182;28;101473;-77
2023/12/12 03:17:45;;;;;;;;;12.00;10.50;;;;;-143.90;100.00;75188.75;4926592;28;103780;-76
2023/12/12 03:20:11;;;;;;;;;14.75;11.75;;;;;-143.90;100.00;75184.63;4931103;28;102908;-77
2023/12/12 03:22:38;;;;;;;;;14.00;12.75;;;;;-143.90;100.00;75190.81;4929181;28;101501;-77
2023/12/12 03:25:05;;;;;;;;;11.50;10.50;;;;;-143.90;100.00;75192.91;4929695;28;101631;-76
2023/12/12 03:27:32;;;;;;;;;10.75;10.00;;;;;-143.90;100.00;75192.91;4928678;28;103598;-76
2023/12/12 03:29:59;;;;;;;;;8.00;7.00;;;;;-143.90;100.00;75192.91;4927564;28;101596;-76
2023/12/12 03:32:25;;;;;;;;;12.00;11.00;;;;;-143.90;100.00;75197.03;4927457;28;102119;-76
2023/12/12 03:34:52;;;;;;;;;12.75;11.75;;;;;-143.90;100.00;75190.81;4929795;28;101722;-75
2023/12/12 03:37:19;;;;;;;;;10.50;10.50;;;;;-143.90;100.00;75203.22;4930317;28;103397;-76
2023/12/12 03:39:46;;;;;;;;;15.00;12.25;;;;;-143.90;100.00;75199.09;4929271;28;101947;-76
2023/12/12 03:42:12;;;;;;;;;10.75;10.00;;;;;-143.90;100.00;75194.97;4929744;28;101591;-77
2023/12/12 03:44:39;;;;;;;;;12.25;10.50;;;;;-143.90;100.00;75192.91;4928036;28;102085;-77
2023/12/12 03:47:06;;;;;;;;;13.75;9.75;;;;;-143.90;100.00;75192.91;4929127;28;103464;-77
2023/12/12 03:49:32;;;;;;;;;10.75;8.00;;;;;-143.90;100.00;75192.91;4930409;28;101695;-77
2023/12/12 03:51:59;;;;;;;;;11.50;10.00;;;;;-143.90;100.00;75197.03;4928232;28;102185;-77
2023/12/12 03:54:26;;;;;;;;;10.00;8.50;;;;;-143.90;100.00;75197.03;4930365;28;102827;-76
2023/12/12 03:56:52;;;;;;;;;12.50;11.00;;;;;-143.90;100.00;75197.03;4926947;28;103480;-76
2023/12/12 03:59:19;;;;;;;;;15.50;12.00;;;;;-143.90;100.00;75203.22;4930910;28;101651;-77
2023/12/12 04:01:48;;;;;;;;;12.25;8.00;;;;;-143.90;100.00;75197.03;4929379;28;101592;-76
2023/12/12 04:04:17;;;;;;;;;11.00;10.75;;;;;-143.90;100.00;75197.03;4930387;28;101831;-76
2023/12/12 04:06:47;;;;;;;;;14.00;13.00;;;;;-143.90;100.00;75199.09;4927891;28;103364;-76
2023/12/12 04:09:15;;;;;;;;;14.00;12.50;;;;;-143.90;100.00;75197.03;4928244;28;102055;-77
2023/12/12 04:11:42;;;;;;;;;13.25;11.50;;;;;-143.90;100.00;75201.16;4927376;28;101798;-77
2023/12/12 04:14:08;;;;;;;;;16.00;12.50;;;;;-143.90;100.00;75199.09;4928202;28;102961;-77
2023/12/12 04:16:35;;;;;;;;;19.75;15.25;;;;;-143.90;100.00;75207.38;4927679;28;103551;-76
2023/12/12 04:19:01;;;;;;;;;17.25;15.25;;;;;-143.90;100.00;75205.28;4929035;28;101970;-76
2023/12/12 04:21:29;;;;;;;;;16.25;14.00;;;;;-143.90;100.00;75203.22;4931212;28;101729;-76
2023/12/12 04:23:56;;;;;;;;;12.75;11.50;;;;;-143.90;100.00;75199.09;4932395;28;101898;-75
2023/12/12 04:26:22;;;;;;;;;14.75;12.75;;;;;-143.90;100.00;75205.28;4931413;28;103304;-74
2023/12/12 04:28:49;;;;;;;;;13.50;11.25;;;;;-143.90;100.00;75201.16;4934463;28;101529;-75
2023/12/12 04:31:17;;;;;;;;;14.50;11.25;;;;;-143.90;100.00;75209.44;4930943;28;101708;-75
2023/12/12 04:33:44;;;;;;;;;12.50;11.50;;;;;-143.90;100.00;75217.69;4930349;28;102717;-75
2023/12/12 04:36:14;;;;;;;;;11.75;10.00;;;;;-143.90;100.00;75215.63;4930716;28;103383;-75
2023/12/12 04:38:41;;;;;;;;;12.00;7.75;;;;;-143.90;100.00;75221.84;4931252;28;101850;-75
2023/12/12 04:41:08;;;;;;;;;8.00;7.00;;;;;-143.90;100.00;75223.91;4930740;28;101911;-75
2023/12/12 04:43:35;;;;;;;;;8.00;7.00;;;;;-143.90;100.00;75225.97;4931410;28;102208;-76
2023/12/12 04:46:02;;;;;;;;;7.00;6.25;;;;;-143.90;100.00;75217.69;4931298;28;103577;-76
2023/12/12 04:48:29;;;;;;;;;8.75;6.50;;;;;-143.90;100.00;75207.38;4929506;28;101523;-75
2023/12/12 04:50:56;;;;;;;;;13.25;10.75;;;;;-143.90;100.00;75215.63;4930502;28;101992;-76
2023/12/12 04:53:23;;;;;;;;;11.00;11.00;;;;;-143.90;100.00;75215.63;4930557;28;102005;-76
2023/12/12 04:55:50;;;;;;;;;8.25;6.50;;;;;-143.90;100.00;75207.38;4932677;28;103505;-76
2023/12/12 04:58:16;;;;;;;;;10.75;7.75;;;;;-143.90;100.00;75211.50;4931459;28;101869;-76
2023/12/12 05:00:43;;;;;;;;;14.75;12.50;;;;;-143.90;100.00;75205.28;4930694;28;101822;-75
2023/12/12 05:03:10;;;;;;;;;11.00;8.00;;;;;-143.90;100.00;75215.63;4929117;28;101682;-75
2023/12/12 05:05:36;;;;;;;;;10.75;7.25;;;;;-143.90;100.00;75213.56;4927649;28;103677;-76
2023/12/12 05:08:03;;;;;;;;;8.00;6.00;;;;;-143.90;100.00;75221.84;4931126;28;101648;-77
2023/12/12 05:10:30;;;;;;;;;10.50;7.75;;;;;-143.90;100.00;75225.97;4931147;28;101683;-76
2023/12/12 05:12:56;;;;;;;;;6.00;3.00;;;;;-143.90;100.00;75228.03;4931959;28;101881;-76
2023/12/12 05:15:23;;;;;;;;;8.00;6.75;;;;;-143.90;100.00;75223.91;4929500;28;103533;-76
2023/12/12 05:17:50;;;;;;;;;7.00;6.00;;;;;-143.90;100.00;75232.19;4932194;28;101772;-76
2023/12/12 05:20:17;;;;;;;;;9.25;8.00;;;;;-143.90;100.00;75238.38;4930643;28;103021;-77
2023/12/12 05:22:44;;;;;;;;;6.50;5.50;;;;;-143.90;100.00;75252.84;4929060;28;101702;-77
2023/12/12 05:25:11;;;;;;;;;9.50;8.75;;;;;-143.90;100.00;75250.78;4928364;28;103621;-76
2023/12/12 05:27:38;;;;;;;;;11.50;10.50;;;;;-143.90;100.00;75252.84;4929972;28;101900;-76
2023/12/12 05:30:05;;;;;;;;;14.00;12.00;;;;;-143.90;100.00;75252.84;4929335;28;103119;-76
2023/12/12 05:32:31;;;;;;;;;17.00;13.00;;;;;-143.90;100.00;75250.78;4943648;28;102164;-76
2023/12/12 05:34:58;;;;;;;;;25.75;17.00;;;;;-143.90;100.00;75259.06;4926852;28;103313;-76
2023/12/12 05:37:25;;;;;;;;;25.50;20.25;;;;;-143.90;100.00;75259.06;4929720;28;101771;-77
2023/12/12 05:39:51;;;;;;;;;25.00;16.75;;;;;-143.90;100.00;75265.25;4930329;28;102109;-78
2023/12/12 05:42:18;;;;;;;;;15.50;14.75;;;;;-143.90;100.00;75277.66;4935167;28;101656;-77
2023/12/12 05:44:45;;;;;;;;;16.00;11.25;;;;;-143.90;100.00;75263.19;4929815;28;103384;-77
2023/12/12 05:47:11;;;;;;;;;12.75;11.50;;;;;-143.90;100.00;75265.25;4929623;28;102109;-77
2023/12/12 05:49:38;;;;;;;;;10.00;10.00;;;;;-143.90;100.00;75259.06;4930390;28;101999;-77
2023/12/12 05:52:05;;;;;;;;;6.25;5.50;;;;;-143.90;100.00;75250.78;4929656;28;102079;-77
2023/12/12 05:54:32;;;;;;;;;12.00;10.00;;;;;-143.90;100.00;75240.44;4930498;28;103626;-77
2023/12/12 05:56:59;;;;;;;;;11.00;10.00;;;;;-143.90;100.00;75248.72;4930801;28;102029;-76
2023/12/12 05:59:25;;;;;;;;;10.50;10.25;;;;;-143.90;100.00;75242.50;4930411;28;102045;-77
2023/12/12 06:01:52;;;;;;;;;11.25;9.50;;;;;-143.90;100.00;75248.72;4929530;28;101868;-76
2023/12/12 06:04:19;;;;;;;;;11.00;10.00;;;;;-143.90;100.00;75246.66;4931559;28;103146;-77
2023/12/12 06:06:45;;;;;;;;;11.75;11.25;;;;;-143.90;100.00;75263.19;4932084;28;101630;-76
2023/12/12 06:09:13;;;;;;;;;11.00;11.00;;;;;-143.90;100.00;75265.25;4931338;28;102409;-78
2023/12/12 06:11:41;;;;;;;;;14.75;12.50;;;;;-143.90;100.00;75279.72;4928668;28;101779;-77
2023/12/12 06:14:08;;;;;;;;;12.75;11.75;;;;;-143.90;100.00;75283.84;4930442;28;103396;-78
2023/12/12 06:16:36;;;;;;;;;13.25;11.25;;;;;-143.90;100.00;75294.19;4930493;28;101897;-77
2023/12/12 06:19:04;;;;;;;;;8.00;7.75;;;;;-143.90;100.00;75298.34;4928767;28;101846;-77
2023/12/12 06:21:32;;;;;;;;;14.25;11.75;;;;;-143.90;100.00;75308.66;4931754;28;103178;-78
2023/12/12 06:24:03;;;;;;;;;12.25;11.00;;;;;-143.90;100.00;75312.81;4927634;28;103550;-77
2023/12/12 06:26:30;;;;;;;;;17.00;15.00;;;;;-143.90;100.00;75325.22;4928052;28;101484;-78
2023/12/12 06:28:57;;;;;;;;;13.25;11.75;;;;;-143.90;100.00;75327.28;4929768;28;101938;-78
2023/12/12 06:31:24;;;;;;;;;14.75;12.75;;;;;-143.90;100.00;75329.34;4932195;28;101613;-78
2023/12/12 06:33:51;;;;;;;;;20.25;16.25;;;;;-143.90;100.00;75331.41;4931756;28;103291;-77
2023/12/12 06:36:18;;;;;;;;;20.00;17.75;;;;;-143.90;100.00;75337.63;4931476;28;101801;-78
2023/12/12 06:38:45;;;;;;;;;17.50;15.50;;;;;-143.90;100.00;75341.75;4928757;28;101553;-77
2023/12/12 06:41:12;;;;;;;;;30.25;23.00;;;;;-143.90;100.00;75360.34;4929636;28;101969;-77
2023/12/12 06:43:38;;;;;;;;;30.25;22.00;;;;;-143.90;100.00;75362.44;4929101;28;103274;-78
2023/12/12 06:46:05;;;;;;;;;22.25;16.25;;;;;-143.90;100.00;75362.44;4928311;28;101629;-78
2023/12/12 06:48:32;;;;;;;;;17.75;17.75;;;;;-143.90;100.00;75360.34;4929555;28;101543;-78
2023/12/12 06:50:58;;;;;;;;;20.25;16.00;;;;;-143.90;100.00;75368.63;4929709;28;101829;-77
2023/12/12 06:53:25;;;;;;;;;22.00;15.25;;;;;-143.90;100.00;75374.84;4929243;28;102587;-76
2023/12/12 06:55:52;;;;;;;;;24.50;22.25;;;;;-143.90;100.00;75397.56;4928130;28;101708;-75
2023/12/12 06:58:20;;;;;;;;;16.00;15.25;;;;;-143.90;100.00;75395.50;4931358;28;101881;-78
2023/12/12 07:00:47;;;;;;;;;20.00;17.25;;;;;-143.90;100.00;75395.50;4931912;28;102348;-78
2023/12/12 07:03:13;;;;;;;;;17.00;16.25;;;;;-143.90;100.00;75391.38;4930693;28;103539;-78
2023/12/12 07:05:40;;;;;;;;;18.00;16.75;;;;;-143.90;100.00;75389.31;4930023;28;101815;-77
2023/12/12 07:08:07;;;;;;;;;22.25;18.00;;;;;-143.90;100.00;75391.38;4928248;28;101543;-72
2023/12/12 07:10:34;;;;;;;;;19.25;18.25;;;;;-143.90;100.00;75407.91;4929442;28;101861;-77
2023/12/12 07:13:01;;;;;;;;;28.00;24.50;;;;;-143.90;100.00;75407.91;4928999;28;103499;-78
2023/12/12 07:15:28;;;;;;;;;22.75;20.75;;;;;-143.90;100.00;75416.19;4930082;28;101666;-78
2023/12/12 07:17:54;;;;;;;;;24.00;20.25;;;;;-143.90;100.00;75418.25;4930880;28;101473;-78
2023/12/12 07:20:21;;;;;;;;;16.25;12.75;;;;;-143.90;100.00;75407.91;4931292;28;101822;-73
2023/12/12 07:22:48;;;;;;;;;25.50;23.25;;;;;-143.90;100.00;75416.19;4931776;28;103448;-76
2023/12/12 07:25:15;;;;;;;;;30.50;26.50;;;;;-143.90;100.00;75420.31;4929293;28;102005;-78
2023/12/12 07:27:42;;;;;;;;;28.50;20.50;;;;;-143.90;100.00;75414.13;4929026;28;102181;-77
2023/12/12 07:30:10;;;;;;;;;21.75;20.00;;;;;-143.90;100.00;75414.13;4930008;28;101497;-77
2023/12/12 07:32:38;;;;;;;;;25.50;24.00;;;;;-143.90;100.00;75424.44;4930087;28;103371;-78
2023/12/12 07:35:05;;;;;;;;;19.00;15.50;;;;;-143.90;100.00;75424.44;4929467;28;101774;-77
2023/12/12 07:37:31;;;;;;;;;20.00;18.00;;;;;-143.90;100.00;75424.44;4925055;28;101530;-73
2023/12/12 07:39:59;;;;;;;;;25.00;20.50;;;;;-143.90;100.00;75432.72;4930348;28;102490;-72
2023/12/12 07:42:25;;;;;;;;;21.25;18.00;;;;;-143.90;100.00;75432.72;4928933;28;103393;-77
2023/12/12 07:44:57;;;;;;;;;33.75;28.50;;;;;-143.90;100.00;75436.84;4926601;28;101655;-77
2023/12/12 07:47:24;;;;;;;;;27.00;24.25;;;;;-143.90;100.00;75434.78;4930244;28;101772;-77
2023/12/12 07:50:05;;;;;;;;;26.75;23.00;;;;;-143.90;100.00;75434.78;4929484;28;102842;-77
2023/12/12 07:52:32;;;;;;;;;25.25;21.00;;;;;-143.90;100.00;75434.78;4929222;28;103629;-77
2023/12/12 07:54:59;;;;;;;;;21.25;19.75;;;;;-143.90;100.00;75436.84;4933353;28;102348;-78
2023/12/12 07:57:26;;;;;;;;;25.50;21.50;;;;;-143.90;100.00;75445.13;4933939;28;102197;-77
2023/12/12 07:59:53;;;;;;;;;25.00;23.00;;;;;-143.90;100.00;75447.19;4935446;28;102085;-76
2023/12/12 08:02:21;;;;;;;;;32.25;24.50;;;;;-143.90;100.00;75457.53;4936934;28;104244;-72
2023/12/12 08:04:48;;;;;;;;;17.75;16.25;;;;;-143.90;100.00;75449.25;4934394;28;102425;-77
2023/12/12 08:07:16;;;;;;;;;18.75;16.50;;;;;-143.90;100.00;75445.13;4935325;28;101702;-78
2023/12/12 08:09:43;;;;;;;;;22.75;20.75;;;;;-143.90;100.00;75445.13;4933359;28;102146;-77
2023/12/12 08:12:09;;;;;;;;;36.75;30.00;;;;;-143.90;100.00;75451.31;4935166;28;103378;-77
2023/12/12 08:14:36;;;;;;;;;29.75;25.00;;;;;-143.90;100.00;75436.84;4933970;28;101758;-78
2023/12/12 08:17:06;;;;;;;;;28.25;25.00;;;;;-143.90;100.00;75428.59;4923862;28;101883;-78
2023/12/12 08:19:33;;;;;;;;;22.50;17.75;;;;;-143.90;100.00;75424.44;4935383;28;102278;-78
2023/12/12 08:22:00;;;;;;;;;25.25;22.75;;;;;-143.90;100.00;75414.13;4934080;28;103664;-77
2023/12/12 08:24:27;;;;;;;;;22.25;19.00;;;;;-143.90;100.00;75409.97;4935978;28;101889;-78
2023/12/12 08:26:54;;;;;;;;;23.25;19.75;;;;;-143.90;100.00;75407.91;4935812;28;102189;-72
2023/12/12 08:29:20;;;;;;;;;32.50;28.25;;;;;-143.90;100.00;75405.84;4938053;28;101921;-72
2023/12/12 08:31:47;;;;;;;;;22.25;17.25;;;;;-143.90;100.00;75401.72;4936767;28;108214;-78
2023/12/12 08:34:13;;;;;;;;;19.00;18.75;;;;;-143.90;100.00;75391.38;4935849;28;101799;-73
2023/12/12 08:36:40;;;;;;;;;26.25;18.25;;;;;-143.90;100.00;75385.16;4934086;28;102666;-77
2023/12/12 08:39:07;;;;;;;;;35.25;25.25;;;;;-143.90;100.00;75397.56;4937354;28;102473;-77
2023/12/12 08:41:37;;;;;;;;;27.25;23.50;;;;;-143.90;100.00;75387.22;4935660;28;103640;-78
2023/12/12 08:44:04;;;;;;;;;27.25;20.25;;;;;-143.90;100.00;75378.97;4935060;28;101888;-77
2023/12/12 08:46:30;;;;;;;;;20.25;17.25;;;;;-143.90;100.00;75374.84;4934519;28;101985;-73
2023/12/12 08:48:57;;;;;;;;;22.25;17.75;;;;;-143.90;100.00;75366.56;4937014;28;102136;-77
2023/12/12 08:51:26;;;;;;;;;15.25;13.50;;;;;-143.90;100.00;75368.63;4934545;28;103314;-77
2023/12/12 08:53:53;;;;;;;;;19.50;15.00;;;;;-143.90;100.00;75360.34;4936647;28;101975;-77
2023/12/12 08:56:20;;;;;;;;;20.25;18.25;;;;;-143.90;100.00;75354.16;4936843;28;102294;-77
2023/12/12 08:58:49;;;;;;;;;19.25;15.50;;;;;-143.90;100.00;75358.28;4932923;28;101644;-78
2023/12/12 09:01:16;;;;;;;;;20.75;19.25;;;;;-143.90;100.00;75362.44;4932366;28;103382;-77
2023/12/12 09:03:43;;;;;;;;;17.75;15.25;;;;;-143.90;100.00;75345.88;4934760;28;102013;-77
2023/12/12 09:06:10;;;;;;;;;27.25;19.75;;;;;-143.90;100.00;75350.03;4930418;28;102005;-76
2023/12/12 09:08:41;;;;;;;;;25.00;21.00;;;;;-143.90;100.00;75362.44;4926942;28;101813;-78
2023/12/12 09:11:09;;;;;;;;;25.75;20.75;;;;;-143.90;100.00;75362.44;4930127;28;103582;-78
2023/12/12 09:13:43;;;;;;;;;26.50;23.25;;;;;-143.90;100.00;75364.50;4929203;28;101656;-78
2023/12/12 09:16:10;;;;;;;;;29.00;26.75;;;;;-143.90;100.00;75364.50;4930097;28;101902;-72
2023/12/12 09:18:37;;;;;;;;;25.25;23.00;;;;;-143.90;100.00;75366.56;4933399;28;102009;-77
2023/12/12 09:21:05;;;;;;;;;26.25;23.75;;;;;-143.90;100.00;75364.50;4933260;28;104249;-78
2023/12/12 09:23:33;;;;;;;;;22.00;18.00;;;;;-143.90;100.00;75358.28;4932783;28;102941;-78
2023/12/12 09:26:00;;;;;;;;;29.25;23.75;;;;;-143.90;100.00;75360.34;4928994;28;101955;-77
2023/12/12 09:28:26;;;;;;;;;25.50;21.50;;;;;-143.90;100.00;75350.03;4924024;28;102631;-77
2023/12/12 09:30:53;;;;;;;;;33.25;30.50;;;;;-143.90;100.00;75350.03;4942257;28;103342;-76
2023/12/12 09:33:20;;;;;;;;;35.00;27.00;;;;;-143.90;100.00;75339.69;4931603;28;101734;-77
2023/12/12 09:35:47;;;;;;;;;38.75;28.25;;;;;-143.90;100.00;75333.47;4931157;28;102607;-72
2023/12/12 09:38:13;;;;;;;;;31.50;27.00;;;;;-143.90;100.00;75333.47;4933106;28;101960;-76
2023/12/12 09:40:40;;;;;;;;;33.75;25.50;;;;;-143.90;100.00;75316.94;4944262;28;103727;-72
2023/12/12 09:43:10;;;;;;;;;39.25;29.50;;;;;-143.90;100.00;75321.06;4929402;28;101780;-73
2023/12/12 09:45:44;;;;;;;;;23.00;20.00;;;;;-143.90;100.00;75308.66;4944907;28;103178;-78
2023/12/12 09:48:13;;;;;;;;;28.25;25.25;;;;;-143.90;100.00;75310.75;4927336;28;103306;-72
2023/12/12 09:50:42;;;;;;;;;28.75;25.50;;;;;-143.90;100.00;75308.66;4893418;28;103338;-77
2023/12/12 09:53:09;;;;;;;;;25.00;22.75;;;;;-143.90;100.00;75306.59;4944971;28;102031;-77
2023/12/12 09:55:36;;;;;;;;;30.75;23.00;;;;;-143.90;100.00;75302.47;4930943;28;101849;-77
2023/12/12 09:58:03;;;;;;;;;22.25;18.25;;;;;-143.90;100.00;75308.66;4931939;28;101801;-77
2023/12/12 10:00:29;;;;;;;;;28.25;24.00;;;;;-143.90;100.00;75310.75;4929458;28;103129;-77
2023/12/12 10:03:04;;;;;;;;;30.75;18.50;;;;;-143.90;100.00;75300.41;4926786;28;102058;-78
2023/12/12 10:05:37;;;;;;;;;21.75;20.25;;;;;-143.90;100.00;75300.41;4929592;28;101611;-72
2023/12/12 10:08:05;;;;;;;;;21.75;18.75;;;;;-143.90;100.00;75314.88;4932298;28;101564;-77
2023/12/12 10:10:41;;;;;;;;;29.75;27.00;;;;;-143.90;100.00;75329.34;4927103;28;103459;-72
2023/12/12 10:13:08;;;;;;;;;12.25;9.25;;;;;-143.90;100.00;75325.22;4930106;28;101687;-77
2023/12/12 10:15:35;;;;;;;;;30.50;26.25;;;;;-143.90;100.00;75345.88;4931193;28;101692;-78
2023/12/12 10:18:02;;;;;;;;;18.50;18.50;;;;;-143.90;100.00;75354.16;4930138;28;101849;-76
2023/12/12 10:20:30;;;;;;;;;33.75;23.50;;;;;-143.90;100.00;75356.22;4927927;28;103331;-79
2023/12/12 10:22:59;;;;;;;;;27.50;20.50;;;;;-143.90;100.00;75364.50;4931792;28;101878;-78
2023/12/12 10:25:27;;;;;;;;;25.00;21.00;;;;;-143.90;100.00;75360.34;4930648;28;101735;-77
2023/12/12 10:27:55;;;;;;;;;21.00;17.00;;;;;-143.90;100.00;75356.22;4930517;28;101641;-77
2023/12/12 10:30:22;;;;;;;;;15.50;15.00;;;;;-143.90;100.00;75350.03;4931754;28;103523;-71
2023/12/12 10:32:53;;;;;;;;;19.50;16.75;;;;;-143.90;100.00;75362.44;4932022;28;101864;-76
2023/12/12 10:35:22;;;;;;;;;25.00;22.25;;;;;-143.90;100.00;75366.56;4931364;28;102538;-77
2023/12/12 10:37:52;;;;;;;;;24.00;21.25;;;;;-143.90;100.00;75341.75;4933546;28;101608;-77
2023/12/12 10:40:21;;;;;;;;;19.25;14.00;;;;;-143.90;100.00;75337.63;4931290;28;107792;-77
2023/12/12 10:42:50;;;;;;;;;23.75;19.00;;;;;-143.90;100.00;75321.06;4929361;28;101894;-77
2023/12/12 10:45:17;;;;;;;;;21.25;16.50;;;;;-143.90;100.00;75316.94;4928612;28;101979;-77
2023/12/12 10:47:53;;;;;;;;;19.00;17.00;;;;;-143.90;100.00;75314.88;4931251;28;101746;-77